Time;durP1;ratioP1;P1;durP2;ratioP2;P2;SDS_P1;SDS_P2;PMS_P1;PMS_P2;Temp;Humidity;BMP_temperature;BMP_pressure;BME280_temperature;BME280_humidity;BME280_pressure;Samples;Min_cycle;Max_cycle;Signal;HPM_P1;HPM_P2
2022/01/20 00:00:18;;;;;;;13.30;2.92;;;5.50;99.90;;;;;;5070415;28;20102;-80
2022/01/20 00:02:46;;;;;;;19.60;3.33;;;5.50;99.90;;;;;;5043031;28;20051;-80
2022/01/20 00:05:40;;;;;;;16.02;2.53;;;6.80;99.90;;;;;;5058343;28;20126;-80
2022/01/20 00:08:16;;;;;;;15.50;3.03;;;6.20;99.90;;;;;;5051123;28;20080;-81
2022/01/20 00:27:13;;;;;;;9.27;2.53;;;5.60;99.90;;;;;;5076941;28;20087;-80
2022/01/20 00:32:32;;;;;;;8.10;1.95;;;6.20;99.90;;;;;;5075092;28;20048;-80
2022/01/20 00:37:27;;;;;;;7.45;1.42;;;5.30;99.90;;;;;;5065876;28;20056;-81
2022/01/20 00:39:53;;;;;;;9.13;1.70;;;5.20;99.90;;;;;;5051025;28;20394;-81
2022/01/20 00:42:19;;;;;;;15.32;2.22;;;5.10;99.90;;;;;;5044734;28;20094;-80
2022/01/20 00:44:46;;;;;;;13.25;2.53;;;5.10;99.90;;;;;;5070576;28;20098;-81
2022/01/20 00:47:13;;;;;;;8.52;2.17;;;5.00;99.90;;;;;;5053169;28;20044;-81
2022/01/20 00:49:40;;;;;;;14.70;2.60;;;6.50;99.90;;;;;;5053250;28;20056;-80
2022/01/20 00:52:07;;;;;;;15.57;2.67;;;4.90;99.90;;;;;;5035599;28;20139;-80
2022/01/20 00:54:33;;;;;;;14.40;2.38;;;4.90;99.90;;;;;;5053343;28;20092;-80
2022/01/20 00:56:59;;;;;;;13.90;2.47;;;4.90;99.90;;;;;;5053120;28;20074;-81
2022/01/20 00:59:27;;;;;;;9.77;2.13;;;4.90;99.90;;;;;;5069092;28;20048;-81
2022/01/20 01:01:54;;;;;;;10.15;2.20;;;4.90;99.90;;;;;;5053075;28;20099;-80
2022/01/20 01:04:19;;;;;;;10.85;2.40;;;5.00;99.90;;;;;;5069115;28;20481;-80
2022/01/20 01:09:30;;;;;;;22.48;2.45;;;5.00;99.90;;;;;;5057313;28;20060;-80
2022/01/20 01:12:01;;;;;;;15.77;2.50;;;5.20;99.90;;;;;;5068935;28;20098;-81
2022/01/20 01:14:29;;;;;;;9.27;2.08;;;5.00;99.90;;;;;;5052907;28;20048;-81
2022/01/20 01:24:43;;;;;;;17.98;2.85;;;5.80;99.90;;;;;;5069451;28;20040;-81
2022/01/20 01:27:11;;;;;;;7.07;1.85;;;6.00;99.90;;;;;;5051863;28;20147;-81
2022/01/20 01:30:01;;;;;;;7.05;2.30;;;5.20;99.90;;;;;;5052875;28;20106;-81
2022/01/20 01:32:44;;;;;;;9.32;1.98;;;6.10;99.90;;;;;;5053869;28;20056;-80
2022/01/20 01:35:11;;;;;;;6.80;1.30;;;5.80;99.90;;;;;;5045763;28;20102;-81
2022/01/20 01:40:10;;;;;;;4.72;1.00;;;5.60;99.90;;;;;;5079688;28;20133;-81
2022/01/20 01:42:44;;;;;;;8.75;1.63;;;5.00;99.90;;;;;;5063687;28;20177;-81
2022/01/20 01:45:15;;;;;;;7.32;1.50;;;6.20;99.90;;;;;;5047544;28;20425;-81
2022/01/20 01:47:40;;;;;;;7.70;1.48;;;5.00;99.90;;;;;;5064111;28;20106;-81
2022/01/20 01:50:07;;;;;;;7.28;1.40;;;4.90;99.90;;;;;;5061120;28;20127;-81
2022/01/20 01:52:33;;;;;;;6.07;1.38;;;4.90;99.90;;;;;;5063278;28;20047;-81
2022/01/20 01:54:59;;;;;;;7.55;1.50;;;5.70;99.90;;;;;;5062794;28;20442;-80
2022/01/20 01:57:26;;;;;;;9.77;1.58;;;4.90;99.90;;;;;;5062415;28;20940;-80
2022/01/20 01:59:52;;;;;;;10.40;1.95;;;4.90;99.90;;;;;;5079589;28;20516;-81
2022/01/20 02:02:18;;;;;;;5.93;2.47;;;4.80;99.90;;;;;;5078308;28;20059;-81
2022/01/20 02:04:44;;;;;;;9.77;2.65;;;4.70;99.90;;;;;;5062772;28;20039;-81
2022/01/20 02:20:21;;;;;;;10.80;2.90;;;5.60;99.90;;;;;;5079226;28;20043;-80
2022/01/20 02:22:47;;;;;;;10.60;1.95;;;4.50;99.90;;;;;;5045052;28;20129;-80
2022/01/20 02:25:24;;;;;;;7.93;2.10;;;4.40;99.90;;;;;;5045586;28;20052;-80
2022/01/20 02:27:51;;;;;;;7.45;1.63;;;4.50;99.90;;;;;;5046359;28;20757;-80
2022/01/20 02:30:18;;;;;;;15.95;2.47;;;5.50;99.90;;;;;;5029113;28;20489;-81
2022/01/20 02:33:12;;;;;;;11.23;2.45;;;4.40;99.90;;;;;;5079031;28;20132;-81
2022/01/20 02:35:43;;;;;;;13.18;3.03;;;4.50;99.90;;;;;;5074310;28;20130;-81
2022/01/20 02:38:15;;;;;;;14.80;2.83;;;4.30;99.90;;;;;;5078004;28;20509;-81
2022/01/20 02:45:53;;;;;;;17.85;3.92;;;4.40;99.90;;;;;;5064920;28;20051;-80
2022/01/20 02:48:20;;;;;;;10.40;3.03;;;5.80;99.90;;;;;;5061657;28;20614;-79
2022/01/20 02:50:45;;;;;;;15.82;3.17;;;4.50;99.90;;;;;;5061910;28;20126;-79
2022/01/20 02:53:11;;;;;;;12.15;2.70;;;4.50;99.90;;;;;;5060740;28;20119;-80
2022/01/20 02:55:37;;;;;;;14.30;3.13;;;5.70;99.90;;;;;;5062491;28;20059;-80
2022/01/20 02:58:03;;;;;;;11.32;2.60;;;4.50;99.90;;;;;;5062204;28;20493;-80
2022/01/20 03:00:31;;;;;;;13.57;2.35;;;5.00;99.90;;;;;;5061064;28;20055;-80
2022/01/20 03:02:57;;;;;;;13.57;2.60;;;4.90;99.90;;;;;;5061569;28;20405;-79
2022/01/20 03:05:23;;;;;;;12.13;2.80;;;4.60;99.90;;;;;;5045142;28;20066;-79
2022/01/20 03:07:48;;;;;;;13.75;2.97;;;4.50;99.90;;;;;;5061298;28;20048;-80
2022/01/20 03:10:14;;;;;;;14.73;3.15;;;4.40;99.90;;;;;;5078217;28;20048;-80
2022/01/20 03:12:40;;;;;;;14.55;3.03;;;4.40;99.90;;;;;;5051990;28;20040;-80
2022/01/20 03:15:06;;;;;;;10.82;2.78;;;4.50;99.90;;;;;;5062418;28;20044;-79
2022/01/20 03:17:32;;;;;;;16.05;2.92;;;4.50;99.90;;;;;;5061048;28;20134;-80
2022/01/20 03:19:59;;;;;;;11.43;2.78;;;4.50;99.90;;;;;;5045359;28;20147;-79
2022/01/20 03:22:25;;;;;;;12.05;2.22;;;5.40;99.90;;;;;;5044999;28;20047;-79
2022/01/20 03:24:50;;;;;;;10.43;2.30;;;4.60;99.90;;;;;;5079602;28;20055;-79
2022/01/20 03:27:16;;;;;;;12.13;2.83;;;5.20;99.90;;;;;;5044313;28;20056;-79
2022/01/20 03:29:42;;;;;;;12.23;2.65;;;4.50;99.90;;;;;;5079096;28;20062;-79
2022/01/20 03:32:08;;;;;;;14.80;2.92;;;6.30;99.90;;;;;;5043617;28;20135;-80
2022/01/20 03:34:34;;;;;;;13.30;2.55;;;4.50;99.90;;;;;;5078487;28;20058;-78
2022/01/20 03:37:03;;;;;;;13.07;2.83;;;4.50;99.90;;;;;;5027286;28;20060;-79
2022/01/20 03:39:30;;;;;;;12.98;2.70;;;4.70;99.90;;;;;;5060935;28;20538;-79
2022/01/20 03:41:56;;;;;;;12.93;2.35;;;4.60;99.90;;;;;;5077095;28;20127;-79
2022/01/20 03:44:21;;;;;;;16.20;3.20;;;4.60;99.90;;;;;;5059791;28;20469;-80
2022/01/20 03:46:47;;;;;;;10.27;2.40;;;4.60;99.90;;;;;;5077872;28;20048;-80
2022/01/20 03:49:27;;;;;;;9.60;2.30;;;4.50;99.90;;;;;;5042961;28;20576;-80
2022/01/20 03:51:53;;;;;;;10.27;2.25;;;4.90;99.90;;;;;;5045882;28;20048;-80
2022/01/20 03:54:19;;;;;;;11.25;2.38;;;4.50;99.90;;;;;;5060897;28;20148;-80
2022/01/20 03:56:45;;;;;;;12.05;2.60;;;4.50;99.90;;;;;;5060994;28;20075;-80
2022/01/20 03:59:11;;;;;;;14.70;3.10;;;5.90;99.90;;;;;;5061372;28;20050;-81
2022/01/20 04:01:36;;;;;;;13.40;2.47;;;4.40;99.90;;;;;;5043624;28;20056;-80
2022/01/20 04:04:02;;;;;;;12.40;2.75;;;4.30;99.90;;;;;;5059935;28;20558;-80
2022/01/20 04:06:28;;;;;;;14.20;3.15;;;5.10;99.90;;;;;;5060557;28;20119;-79
2022/01/20 04:08:54;;;;;;;11.75;2.90;;;4.50;99.90;;;;;;5061936;28;20141;-79
2022/01/20 04:11:22;;;;;;;10.35;2.53;;;4.30;99.90;;;;;;5060142;28;20054;-79
2022/01/20 04:13:49;;;;;;;15.43;2.85;;;5.30;99.90;;;;;;5076642;28;20036;-80
2022/01/20 04:16:20;;;;;;;14.98;2.88;;;4.80;99.90;;;;;;5048286;28;20067;-81
2022/01/20 04:18:53;;;;;;;12.75;2.13;;;4.30;99.90;;;;;;5081107;28;20047;-80
2022/01/20 04:21:21;;;;;;;10.50;2.20;;;5.60;99.90;;;;;;5079661;28;20052;-79
2022/01/20 04:23:46;;;;;;;10.80;2.03;;;4.20;99.90;;;;;;5061632;28;20051;-79
2022/01/20 04:26:12;;;;;;;11.13;2.63;;;4.20;99.90;;;;;;5047746;28;20048;-81
2022/01/20 04:28:38;;;;;;;10.75;1.90;;;4.10;99.90;;;;;;5064345;28;20059;-81
2022/01/20 04:31:04;;;;;;;10.05;2.33;;;4.90;99.90;;;;;;5064572;28;20044;-80
2022/01/20 04:33:29;;;;;;;12.23;2.22;;;4.10;99.90;;;;;;5062988;28;20097;-80
2022/01/20 04:35:55;;;;;;;13.68;2.42;;;4.00;99.90;;;;;;5072239;28;20121;-80
2022/01/20 04:38:21;;;;;;;12.15;2.25;;;4.00;99.90;;;;;;5064068;28;20094;-80
2022/01/20 04:40:47;;;;;;;8.02;2.25;;;5.40;99.90;;;;;;5079459;28;20052;-80
2022/01/20 04:43:13;;;;;;;7.18;2.30;;;3.90;99.90;;;;;;5080223;28;20512;-81
2022/01/20 04:45:46;;;;;;;11.23;2.80;;;3.80;99.90;;;;;;5081561;28;20125;-80
2022/01/20 04:58:50;;;;;;;7.85;2.05;;;3.80;99.90;;;;;;5079609;28;20044;-80
2022/01/20 05:01:16;;;;;;;7.90;1.90;;;4.50;99.90;;;;;;5079883;28;20044;-80
2022/01/20 05:03:43;;;;;;;8.73;2.08;;;3.90;99.90;;;;;;5065085;28;20075;-79
2022/01/20 05:06:09;;;;;;;11.70;2.55;;;3.90;99.90;;;;;;5047222;28;20117;-79
2022/01/20 05:08:35;;;;;;;10.77;1.92;;;3.90;99.90;;;;;;5063062;28;20058;-80
2022/01/20 05:11:02;;;;;;;8.65;1.40;;;4.50;99.90;;;;;;5063772;28;20060;-79
2022/01/20 05:13:34;;;;;;;2.03;1.10;;;3.80;99.90;;;;;;5046297;28;20048;-79
2022/01/20 05:16:00;;;;;;;4.95;1.10;;;4.00;99.90;;;;;;5049974;28;20048;-80
2022/01/20 05:18:27;;;;;;;6.55;1.60;;;4.50;99.90;;;;;;5088278;28;20051;-80
2022/01/20 05:20:52;;;;;;;7.07;1.55;;;3.70;99.90;;;;;;5064123;28;20089;-79
2022/01/20 05:23:18;;;;;;;9.93;2.50;;;3.50;99.90;;;;;;5080410;28;20048;-80
2022/01/20 05:25:45;;;;;;;8.38;1.70;;;3.20;99.90;;;;;;5062053;28;20051;-80
2022/01/20 05:28:10;;;;;;;4.65;1.52;;;3.20;99.90;;;;;;5081881;28;20063;-80
2022/01/20 05:30:36;;;;;;;6.15;2.10;;;3.10;99.90;;;;;;5079278;28;20417;-79
2022/01/20 05:33:02;;;;;;;8.60;2.50;;;3.40;99.90;;;;;;5064630;28;20054;-80
2022/01/20 05:35:28;;;;;;;8.30;2.50;;;4.40;99.90;;;;;;5062932;28;20055;-80
2022/01/20 05:37:54;;;;;;;14.07;2.35;;;3.20;99.90;;;;;;5080910;28;20104;-80
2022/01/20 05:40:20;;;;;;;10.88;2.28;;;3.20;99.90;;;;;;5062980;28;20043;-79
2022/01/20 05:42:46;;;;;;;8.45;2.20;;;4.40;99.90;;;;;;5062804;28;20489;-80
2022/01/20 05:45:15;;;;;;;7.45;2.08;;;3.90;99.90;;;;;;5047911;28;20079;-79
2022/01/20 05:47:46;;;;;;;10.07;2.17;;;3.20;99.90;;;;;;5080394;28;20050;-79
2022/01/20 05:50:15;;;;;;;6.97;2.35;;;3.10;99.90;;;;;;5064662;28;20109;-80
2022/01/20 05:52:41;;;;;;;11.00;2.03;;;4.10;99.90;;;;;;5078797;28;20047;-80
2022/01/20 05:55:10;;;;;;;11.88;2.25;;;2.90;99.90;;;;;;5062378;28;20048;-80
2022/01/20 05:57:36;;;;;;;8.70;2.30;;;3.40;99.90;;;;;;5080352;28;20044;-78
2022/01/20 06:00:05;;;;;;;11.95;2.67;;;2.80;99.90;;;;;;5029000;28;20036;-80
2022/01/20 06:02:36;;;;;;;13.60;2.72;;;2.70;99.90;;;;;;5048092;28;20040;-80
2022/01/20 06:05:04;;;;;;;23.98;4.63;;;3.70;99.90;;;;;;5048734;28;20048;-79
2022/01/20 06:07:30;;;;;;;12.05;3.13;;;2.60;99.90;;;;;;5060701;28;20090;-79
2022/01/20 06:09:55;;;;;;;17.65;2.58;;;3.10;99.90;;;;;;5064488;28;20080;-79
2022/01/20 06:12:21;;;;;;;13.13;2.97;;;3.90;99.90;;;;;;5044523;28;20040;-80
2022/01/20 06:14:47;;;;;;;18.00;2.90;;;2.60;99.90;;;;;;5062859;28;20075;-79
2022/01/20 06:17:13;;;;;;;17.67;2.90;;;2.60;99.90;;;;;;5064410;28;20052;-80
2022/01/20 06:19:38;;;;;;;10.07;2.10;;;2.70;99.90;;;;;;5061329;28;20108;-79
2022/01/20 06:22:04;;;;;;;5.15;1.75;;;2.80;99.90;;;;;;5061811;28;20481;-79
2022/01/20 06:24:30;;;;;;;14.73;2.15;;;2.90;99.90;;;;;;5044971;28;20051;-79
2022/01/20 06:26:55;;;;;;;12.38;2.90;;;2.80;99.90;;;;;;5046373;28;20104;-79
2022/01/20 06:29:22;;;;;;;13.65;2.10;;;4.20;99.90;;;;;;5045119;28;20062;-80
2022/01/20 06:31:48;;;;;;;7.70;1.48;;;3.30;99.90;;;;;;5045132;28;20477;-79
2022/01/20 06:34:13;;;;;;;4.90;1.42;;;2.60;99.90;;;;;;5079834;28;20077;-79
2022/01/20 06:36:39;;;;;;;13.00;2.97;;;2.60;99.90;;;;;;5043156;28;20050;-80
2022/01/20 06:39:05;;;;;;;11.52;3.13;;;2.60;99.90;;;;;;5063161;28;20051;-79
2022/01/20 06:41:35;;;;;;;13.90;2.67;;;1.60;99.90;;;;;;5043264;28;20154;-79
2022/01/20 06:44:01;;;;;;;9.18;2.58;;;3.80;99.90;;;;;;5045698;28;20048;-79
2022/01/20 06:46:27;;;;;;;13.70;2.80;;;3.20;99.90;;;;;;5061779;28;20066;-79
2022/01/20 06:48:52;;;;;;;13.40;3.47;;;4.10;99.90;;;;;;5029244;28;20174;-79
2022/01/20 06:51:19;;;;;;;11.90;3.78;;;4.10;99.90;;;;;;5077911;28;20588;-79
2022/01/20 06:53:44;;;;;;;11.00;2.40;;;3.60;99.90;;;;;;5059593;28;20059;-79
2022/01/20 06:56:10;;;;;;;16.77;3.05;;;2.70;99.90;;;;;;5029181;28;20044;-79
2022/01/20 06:58:36;;;;;;;12.73;2.67;;;3.20;99.90;;;;;;5029910;28;20397;-79
2022/01/20 07:01:01;;;;;;;12.73;2.92;;;4.10;99.90;;;;;;5060944;28;20040;-79
2022/01/20 07:03:30;;;;;;;12.52;2.78;;;2.20;99.90;;;;;;5027827;28;20113;-80
2022/01/20 07:05:55;;;;;;;15.57;3.05;;;4.70;99.90;;;;;;5044851;28;20128;-79
2022/01/20 07:08:21;;;;;;;13.30;2.97;;;3.80;99.90;;;;;;5045168;28;20047;-80
2022/01/20 07:10:47;;;;;;;15.50;3.38;;;4.50;99.90;;;;;;5060369;28;20923;-79
2022/01/20 07:13:13;;;;;;;19.42;3.65;;;3.10;99.90;;;;;;5078313;28;20044;-79
2022/01/20 07:15:38;;;;;;;8.88;2.78;;;3.10;99.90;;;;;;5078071;28;20402;-79
2022/01/20 07:18:04;;;;;;;9.63;2.45;;;3.00;99.90;;;;;;5060898;28;20177;-79
2022/01/20 07:20:31;;;;;;;15.57;2.35;;;3.10;99.90;;;;;;5052223;28;20123;-79
2022/01/20 07:22:57;;;;;;;11.10;2.33;;;4.50;99.90;;;;;;5045114;28;20051;-79
2022/01/20 07:25:23;;;;;;;10.20;2.40;;;3.10;99.90;;;;;;5044411;28;20048;-80
2022/01/20 07:27:49;;;;;;;9.80;2.33;;;3.10;99.90;;;;;;5061250;28;20527;-79
2022/01/20 07:30:14;;;;;;;6.90;2.13;;;3.10;99.90;;;;;;5060659;28;20043;-80
2022/01/20 07:32:41;;;;;;;10.25;2.67;;;3.10;99.90;;;;;;5060872;28;20072;-79
2022/01/20 07:35:07;;;;;;;10.57;2.72;;;3.10;99.90;;;;;;5045081;28;20048;-82
2022/01/20 07:37:32;;;;;;;15.30;2.78;;;3.10;99.90;;;;;;5060402;28;20548;-80
2022/01/20 07:39:58;;;;;;;10.40;2.53;;;3.20;99.90;;;;;;5045342;28;20058;-80
2022/01/20 07:42:24;;;;;;;8.73;1.95;;;3.20;99.90;;;;;;5076645;28;20054;-81
2022/01/20 07:44:50;;;;;;;11.82;2.42;;;2.80;99.90;;;;;;5027824;28;20087;-79
2022/01/20 07:47:15;;;;;;;10.57;2.38;;;3.80;99.90;;;;;;5044064;28;20131;-80
2022/01/20 07:49:41;;;;;;;11.32;2.70;;;4.50;99.90;;;;;;5044654;28;20044;-80
2022/01/20 07:52:07;;;;;;;14.93;2.70;;;4.20;99.90;;;;;;5059690;28;20048;-80
2022/01/20 07:54:33;;;;;;;12.27;3.47;;;3.50;99.90;;;;;;5060835;28;20135;-80
2022/01/20 07:56:58;;;;;;;14.20;3.28;;;3.50;99.90;;;;;;5061712;28;20130;-80
2022/01/20 07:59:24;;;;;;;19.42;3.45;;;3.70;99.90;;;;;;5060678;28;20044;-80
2022/01/20 08:01:51;;;;;;;13.05;3.67;;;4.80;99.90;;;;;;5077306;28;20052;-80
2022/01/20 08:04:17;;;;;;;10.63;2.80;;;3.90;99.90;;;;;;5061222;28;20056;-80
2022/01/20 08:06:43;;;;;;;15.52;3.08;;;3.40;99.90;;;;;;5058679;28;20036;-80
2022/01/20 08:09:09;;;;;;;14.63;3.05;;;3.30;99.90;;;;;;5028315;28;20113;-80
2022/01/20 08:11:35;;;;;;;10.32;2.70;;;3.20;99.90;;;;;;5026703;28;20130;-80
2022/01/20 08:14:00;;;;;;;12.40;2.50;;;4.80;99.90;;;;;;5027633;28;20085;-80
2022/01/20 08:16:26;;;;;;;9.95;2.08;;;3.20;99.90;;;;;;5028184;28;20397;-80
2022/01/20 08:18:53;;;;;;;11.25;2.95;;;3.10;99.90;;;;;;5026928;28;20181;-79
2022/01/20 08:21:19;;;;;;;11.32;2.60;;;3.70;99.90;;;;;;5042227;28;20050;-80
2022/01/20 08:23:45;;;;;;;10.40;2.85;;;3.40;99.90;;;;;;5041832;28;20056;-79
2022/01/20 08:26:11;;;;;;;9.32;2.75;;;4.80;99.90;;;;;;5077162;28;20055;-80
2022/01/20 08:28:37;;;;;;;8.32;2.47;;;3.20;99.90;;;;;;5077089;28;20047;-80
2022/01/20 08:31:02;;;;;;;10.98;3.08;;;3.90;99.90;;;;;;5061026;28;20054;-80
2022/01/20 08:33:28;;;;;;;13.63;2.92;;;3.20;99.90;;;;;;5078003;28;20083;-81
2022/01/20 08:35:56;;;;;;;10.02;2.47;;;5.50;99.90;;;;;;5044462;28;20091;-81
2022/01/20 08:38:22;;;;;;;8.18;2.28;;;3.50;99.90;;;;;;5076496;28;20052;-80
2022/01/20 08:40:48;;;;;;;13.02;2.47;;;4.10;99.90;;;;;;5059046;28;20070;-79
2022/01/20 08:43:14;;;;;;;7.88;2.08;;;3.70;99.90;;;;;;5059865;28;20385;-80
2022/01/20 08:45:43;;;;;;;14.38;2.83;;;4.50;99.90;;;;;;5060261;28;20044;-80
2022/01/20 08:48:12;;;;;;;12.57;2.67;;;3.40;99.90;;;;;;5078002;28;20040;-80
2022/01/20 08:50:38;;;;;;;12.18;2.60;;;5.00;99.90;;;;;;5061096;28;20048;-80
2022/01/20 08:53:05;;;;;;;14.40;2.85;;;4.10;99.90;;;;;;5027322;28;20493;-80
2022/01/20 08:55:30;;;;;;;13.45;3.08;;;3.60;99.90;;;;;;5043982;28;20137;-81
2022/01/20 08:57:58;;;;;;;15.55;3.15;;;5.00;99.90;;;;;;5044823;28;20097;-80
2022/01/20 09:00:31;;;;;;;14.90;3.25;;;4.00;99.90;;;;;;5060792;28;20080;-80
2022/01/20 09:02:59;;;;;;;11.05;3.17;;;4.20;99.90;;;;;;5065944;28;20047;-80
2022/01/20 09:05:25;;;;;;;11.18;2.63;;;4.80;99.90;;;;;;5081105;28;20127;-80
2022/01/20 09:07:51;;;;;;;15.10;3.42;;;5.20;99.90;;;;;;5080779;28;20859;-80
2022/01/20 09:10:20;;;;;;;13.43;3.25;;;5.10;99.90;;;;;;5080989;28;20063;-80
2022/01/20 09:15:29;;;;;;;11.88;2.65;;;4.80;99.90;;;;;;5081028;28;20493;-80
2022/01/20 09:17:56;;;;;;;14.10;2.83;;;4.70;99.90;;;;;;5062797;28;20116;-80
2022/01/20 09:20:23;;;;;;;11.13;3.28;;;5.30;99.90;;;;;;5079952;28;20130;-80
2022/01/20 09:22:50;;;;;;;12.82;3.47;;;4.60;99.90;;;;;;5045406;28;20040;-79
2022/01/20 09:25:17;;;;;;;17.23;4.60;;;4.30;99.90;;;;;;5079640;28;20393;-80
2022/01/20 09:27:43;;;;;;;14.65;3.67;;;4.10;99.90;;;;;;5064096;28;20063;-79
2022/01/20 09:30:09;;;;;;;11.00;2.67;;;4.70;99.90;;;;;;5063321;28;20060;-79
2022/01/20 09:32:38;;;;;;;8.40;2.15;;;3.60;99.90;;;;;;5079546;28;20044;-80
2022/01/20 09:35:05;;;;;;;8.60;1.95;;;3.50;99.90;;;;;;5079637;28;20055;-80
2022/01/20 09:37:31;;;;;;;6.50;1.73;;;3.40;99.90;;;;;;5047105;28;20174;-79
2022/01/20 09:39:57;;;;;;;7.72;2.35;;;4.50;99.90;;;;;;5080387;28;20126;-80
2022/01/20 09:42:24;;;;;;;8.95;2.38;;;3.60;99.90;;;;;;5046561;28;20056;-79
2022/01/20 09:44:52;;;;;;;9.93;2.80;;;3.50;99.90;;;;;;5079126;28;20107;-79
2022/01/20 09:47:19;;;;;;;8.63;2.40;;;3.80;99.90;;;;;;5031213;28;20060;-80
2022/01/20 09:49:45;;;;;;;5.88;1.85;;;4.80;99.90;;;;;;5079557;28;20043;-79
2022/01/20 09:52:11;;;;;;;5.80;1.77;;;3.80;99.90;;;;;;5080102;28;20102;-79
2022/01/20 09:54:38;;;;;;;11.10;2.30;;;3.00;99.90;;;;;;5061701;28;20048;-80
2022/01/20 09:57:04;;;;;;;12.00;2.22;;;3.50;99.90;;;;;;5080660;28;20091;-79
2022/01/20 09:59:31;;;;;;;6.32;1.92;;;4.10;99.90;;;;;;5062807;28;20048;-79
2022/01/20 10:01:58;;;;;;;6.35;1.58;;;3.90;99.90;;;;;;5078776;28;20268;-80
2022/01/20 10:04:27;;;;;;;11.10;2.60;;;3.30;99.90;;;;;;5063552;28;20056;-79
2022/01/20 10:07:09;;;;;;;10.70;2.50;;;3.10;99.90;;;;;;5063327;28;20094;-79
2022/01/20 10:09:38;;;;;;;14.73;2.97;;;3.50;99.90;;;;;;5079476;28;20554;-81
2022/01/20 10:12:06;;;;;;;12.82;2.90;;;4.30;99.90;;;;;;5077880;28;20090;-80
2022/01/20 10:14:43;;;;;;;12.45;2.80;;;5.20;99.90;;;;;;5063037;28;20044;-80
2022/01/20 10:17:21;;;;;;;12.10;2.45;;;5.70;99.90;;;;;;5046383;28;20082;-80
2022/01/20 10:19:52;;;;;;;12.73;2.75;;;5.80;99.90;;;;;;5062359;28;20105;-80
2022/01/20 10:22:23;;;;;;;11.85;2.50;;;5.50;99.90;;;;;;5063786;28;20436;-79
2022/01/20 10:25:09;;;;;;;6.93;1.80;;;5.30;99.90;;;;;;5078784;28;20048;-79
2022/01/20 10:27:55;;;;;;;8.50;1.42;;;5.00;99.90;;;;;;5079447;28;20081;-80
2022/01/20 10:30:25;;;;;;;9.95;2.00;;;5.00;99.90;;;;;;5062602;28;20508;-80
2022/01/20 10:32:55;;;;;;;8.05;2.05;;;5.00;99.90;;;;;;5077818;28;20520;-79
2022/01/20 10:35:27;;;;;;;10.70;2.20;;;5.20;99.90;;;;;;5078581;28;20048;-79
2022/01/20 10:38:01;;;;;;;10.93;2.17;;;5.60;99.90;;;;;;5062169;28;20194;-78
2022/01/20 10:40:27;;;;;;;7.70;2.38;;;6.30;99.90;;;;;;5044533;28;20051;-80
2022/01/20 10:42:54;;;;;;;9.23;2.40;;;6.60;99.90;;;;;;5060645;28;20048;-80
2022/01/20 10:45:28;;;;;;;17.30;2.53;;;6.80;99.90;;;;;;5045563;28;20054;-79
2022/01/20 10:47:57;;;;;;;18.45;3.10;;;6.90;99.90;;;;;;5077810;28;20442;-79
2022/01/20 10:50:27;;;;;;;9.38;3.10;;;6.50;99.90;;;;;;5061634;28;20075;-80
2022/01/20 10:52:54;;;;;;;5.57;1.63;;;5.80;99.90;;;;;;5060016;28;20044;-80
2022/01/20 10:55:21;;;;;;;10.32;2.20;;;6.00;99.90;;;;;;5046397;28;20130;-79
2022/01/20 10:57:47;;;;;;;5.40;1.50;;;6.30;99.90;;;;;;5077949;28;20075;-80
2022/01/20 11:00:17;;;;;;;7.63;2.05;;;5.00;99.90;;;;;;5061552;28;20083;-80
2022/01/20 11:02:43;;;;;;;9.27;2.28;;;4.50;99.90;;;;;;5076955;28;20108;-80
2022/01/20 11:05:10;;;;;;;14.73;2.22;;;5.80;99.90;;;;;;5046367;28;20044;-79
2022/01/20 11:07:39;;;;;;;10.85;2.22;;;4.60;99.90;;;;;;5078593;28;20561;-79
2022/01/20 11:10:07;;;;;;;5.63;1.60;;;4.20;99.90;;;;;;5045715;28;20090;-79
2022/01/20 11:12:34;;;;;;;9.68;1.42;;;4.10;99.90;;;;;;5078554;28;20127;-80
2022/01/20 11:15:00;;;;;;;5.28;1.55;;;4.00;99.90;;;;;;5070005;28;20441;-80
2022/01/20 11:17:29;;;;;;;9.35;2.05;;;4.40;99.90;;;;;;5078798;28;20051;-80
2022/01/20 11:20:06;;;;;;;9.90;1.75;;;3.90;99.90;;;;;;5060603;28;20354;-79
2022/01/20 11:22:32;;;;;;;7.63;2.30;;;3.90;99.90;;;;;;5077204;28;20039;-80
2022/01/20 11:25:02;;;;;;;8.65;2.30;;;4.00;99.90;;;;;;5061563;28;20044;-79
2022/01/20 11:27:43;;;;;;;8.43;1.95;;;4.10;99.90;;;;;;5047284;28;20052;-80
2022/01/20 11:30:15;;;;;;;6.35;2.08;;;4.80;99.90;;;;;;5062188;28;20040;-81
2022/01/20 11:32:42;;;;;;;9.25;2.08;;;4.20;99.90;;;;;;5077736;28;20056;-81
2022/01/20 11:35:10;;;;;;;7.88;2.08;;;5.00;99.90;;;;;;5061613;28;20104;-80
2022/01/20 11:37:39;;;;;;;7.40;2.10;;;4.50;99.90;;;;;;5077598;28;20519;-80
2022/01/20 11:40:16;;;;;;;9.88;2.08;;;4.90;99.90;;;;;;5076785;28;20058;-81
2022/01/20 11:42:55;;;;;;;9.48;2.45;;;4.50;99.90;;;;;;5060674;28;20043;-81
2022/01/20 11:45:29;;;;;;;8.02;1.77;;;5.30;99.90;;;;;;5062025;28;20044;-79
2022/01/20 11:47:56;;;;;;;9.05;1.55;;;3.80;99.90;;;;;;5061976;28;20052;-80
2022/01/20 11:50:22;;;;;;;5.05;1.42;;;3.60;99.90;;;;;;5077314;28;20048;-80
2022/01/20 11:52:50;;;;;;;7.57;1.70;;;3.60;99.90;;;;;;5043873;28;20378;-79
2022/01/20 11:55:19;;;;;;;6.72;1.70;;;3.50;99.90;;;;;;5061343;28;20039;-79
2022/01/20 11:57:45;;;;;;;10.68;2.38;;;3.60;99.90;;;;;;5076433;28;20051;-80
2022/01/20 12:00:21;;;;;;;12.27;2.65;;;3.60;99.90;;;;;;5043919;28;20066;-80
2022/01/20 12:02:47;;;;;;;7.80;1.90;;;3.70;99.90;;;;;;5044193;28;20044;-80
2022/01/20 12:05:29;;;;;;;13.65;2.92;;;3.80;99.90;;;;;;5062294;28;20048;-79
2022/01/20 12:08:11;;;;;;;12.68;2.47;;;3.90;99.90;;;;;;5077893;28;20381;-79
2022/01/20 12:10:38;;;;;;;10.48;2.38;;;4.00;99.90;;;;;;5077761;28;20052;-80
2022/01/20 12:13:10;;;;;;;12.85;2.20;;;4.00;99.90;;;;;;5045501;28;20079;-80
2022/01/20 12:15:49;;;;;;;11.73;2.58;;;4.10;99.90;;;;;;5059631;28;20044;-80
2022/01/20 12:18:15;;;;;;;13.45;2.78;;;5.70;99.90;;;;;;5060858;28;20524;-79
2022/01/20 12:20:41;;;;;;;11.93;2.78;;;5.80;99.90;;;;;;5059139;28;20040;-79
2022/01/20 12:23:07;;;;;;;7.65;1.60;;;4.70;99.90;;;;;;5059465;28;20079;-80
2022/01/20 12:25:36;;;;;;;7.85;2.00;;;4.60;99.90;;;;;;5060529;28;20056;-79
2022/01/20 12:28:08;;;;;;;11.52;2.42;;;4.40;99.90;;;;;;5036654;28;20848;-80
2022/01/20 12:30:36;;;;;;;11.30;2.33;;;4.20;99.90;;;;;;5060609;28;20048;-79
2022/01/20 12:33:11;;;;;;;14.30;2.83;;;4.10;99.90;;;;;;5043110;28;20163;-80
2022/01/20 12:35:41;;;;;;;13.05;2.85;;;4.70;99.90;;;;;;5060488;28;20056;-81
2022/01/20 12:38:26;;;;;;;11.18;2.63;;;4.10;99.90;;;;;;5079520;28;20063;-80
2022/01/20 12:41:12;;;;;;;14.57;2.60;;;4.20;99.90;;;;;;5077823;28;20082;-80
2022/01/20 12:44:06;;;;;;;10.55;2.17;;;4.30;99.90;;;;;;5066416;28;20508;-80
2022/01/20 12:46:41;;;;;;;8.98;1.77;;;5.50;99.90;;;;;;5080296;28;20052;-79
2022/01/20 12:49:12;;;;;;;7.32;1.77;;;5.10;99.90;;;;;;5063041;28;20044;-80
2022/01/20 12:51:53;;;;;;;9.20;2.03;;;5.20;99.90;;;;;;5080083;28;20122;-80
2022/01/20 12:54:21;;;;;;;4.53;0.98;;;4.40;99.90;;;;;;5079721;28;20051;-80
2022/01/20 12:56:50;;;;;;;5.72;1.33;;;4.00;99.90;;;;;;5080182;28;20043;-80
2022/01/20 12:59:26;;;;;;;3.60;1.02;;;3.70;99.90;;;;;;5065328;28;20048;-81
2022/01/20 13:02:01;;;;;;;4.10;1.05;;;4.10;99.90;;;;;;5080477;28;20047;-81
2022/01/20 13:04:29;;;;;;;5.57;1.30;;;3.30;99.90;;;;;;5048794;28;20048;-82
2022/01/20 13:07:01;;;;;;;9.27;1.60;;;3.20;99.90;;;;;;5048626;28;20059;-82
2022/01/20 13:09:47;;;;;;;5.28;1.30;;;4.30;99.90;;;;;;5064912;28;20512;-82
2022/01/20 13:12:15;;;;;;;5.77;1.63;;;3.30;99.90;;;;;;5048635;28;20048;-81
2022/01/20 13:14:51;;;;;;;11.45;2.00;;;3.40;99.90;;;;;;5080768;28;20290;-82
2022/01/20 13:17:26;;;;;;;5.20;1.20;;;3.50;99.90;;;;;;5064076;28;20087;-82
2022/01/20 13:19:55;;;;;;;6.53;1.70;;;3.80;99.90;;;;;;5063371;28;20051;-82
2022/01/20 13:22:38;;;;;;;13.05;2.22;;;3.80;99.90;;;;;;5079254;28;20075;-82
2022/01/20 13:25:13;;;;;;;14.63;2.65;;;4.00;99.90;;;;;;5082131;28;20090;-82
2022/01/20 13:28:00;;;;;;;7.55;1.95;;;4.10;99.90;;;;;;5081215;28;20858;-81
2022/01/20 13:30:29;;;;;;;5.75;1.30;;;4.50;99.90;;;;;;5079495;28;20072;-81
2022/01/20 13:32:57;;;;;;;5.75;1.40;;;4.00;99.90;;;;;;5063467;28;20048;-81
2022/01/20 13:35:24;;;;;;;7.13;1.80;;;3.80;99.90;;;;;;5047551;28;20079;-81
2022/01/20 13:38:04;;;;;;;10.38;2.95;;;4.10;99.90;;;;;;5036812;28;20382;-82
2022/01/20 13:40:31;;;;;;;11.15;2.30;;;3.80;99.90;;;;;;5052127;28;20040;-82
2022/01/20 13:45:53;;;;;;;12.73;2.20;;;3.90;99.90;;;;;;5067938;28;20057;-82
2022/01/20 13:48:32;;;;;;;14.95;2.53;;;4.00;99.90;;;;;;5059573;28;20144;-82
2022/01/20 13:50:59;;;;;;;10.30;2.53;;;4.70;99.90;;;;;;5068291;28;20109;-82
2022/01/20 13:53:27;;;;;;;11.75;2.53;;;4.10;99.90;;;;;;5050883;28;20143;-81
2022/01/20 13:56:00;;;;;;;12.38;2.45;;;4.20;99.90;;;;;;5019258;28;20048;-81
2022/01/20 13:58:31;;;;;;;9.68;2.38;;;4.90;99.90;;;;;;5051842;28;20094;-81
2022/01/20 14:00:58;;;;;;;9.07;2.38;;;4.30;99.90;;;;;;5051055;28;20105;-81
2022/01/20 14:03:25;;;;;;;11.50;2.80;;;4.50;99.90;;;;;;5051627;28;20080;-82
2022/01/20 14:05:55;;;;;;;13.20;2.63;;;4.30;99.90;;;;;;5050478;28;20041;-82